createdAt,value
2018-07-22T00:00:50.218Z,49.84
2018-07-22T00:15:50.180Z,48.74
2018-07-22T00:30:50.487Z,49.71
2018-07-22T00:45:50.837Z,49.72
2018-07-22T01:00:52.623Z,50.19
2018-07-22T01:15:50.272Z,49.62
2018-07-22T01:30:50.256Z,49.78
2018-07-22T01:45:52.658Z,50.08
2018-07-22T02:00:50.945Z,49.94
2018-07-22T02:15:50.844Z,50.88
2018-07-22T02:30:50.128Z,51.10
2018-07-22T02:45:50.095Z,50.39
2018-07-22T03:00:49.945Z,51.28
2018-07-22T03:15:50.060Z,51.43
2018-07-22T03:30:51.115Z,51.64
2018-07-22T03:45:52.556Z,50.84
2018-07-22T04:00:50.671Z,50.70
2018-07-22T04:15:50.612Z,50.33
2018-07-22T04:30:51.098Z,50.35
2018-07-22T04:45:51.031Z,49.50
2018-07-22T05:00:51.096Z,48.90
2018-07-22T05:15:51.041Z,48.57
2018-07-22T05:30:50.500Z,47.67
2018-07-22T05:45:51.455Z,46.54
2018-07-22T06:00:51.893Z,44.72
2018-07-22T06:15:53.556Z,44.67
2018-07-22T06:30:50.849Z,43.27
2018-07-22T06:45:50.808Z,43.10
2018-07-22T07:00:50.850Z,42.09
2018-07-22T07:15:50.809Z,41.19
2018-07-22T07:30:51.183Z,41.10
2018-07-22T07:45:51.188Z,38.51
2018-07-22T08:00:53.217Z,37.10
2018-07-22T08:15:51.073Z,36.49
2018-07-22T08:30:50.605Z,36.30
2018-07-22T08:45:50.674Z,36.20
2018-07-22T09:00:50.577Z,35.58
2018-07-22T09:15:51.021Z,35.38
2018-07-22T09:30:50.929Z,35.60
2018-07-22T09:45:50.950Z,35.86
2018-07-22T10:15:54.024Z,36.97
2018-07-22T11:00:51.400Z,37.11
2018-07-22T11:30:52.323Z,35.27
2018-07-22T11:45:50.717Z,34.01
2018-07-22T12:00:51.853Z,34.89
2018-07-22T12:15:50.722Z,35.54
2018-07-22T12:30:51.233Z,36.37
2018-07-22T12:45:53.177Z,36.16
2018-07-22T13:00:51.298Z,38.04
2018-07-22T13:15:53.877Z,49.05
2018-07-22T13:30:51.239Z,54.88
2018-07-22T13:45:49.953Z,58.10
2018-07-22T14:00:52.590Z,59.84
2018-07-22T14:15:50.468Z,61.89
2018-07-22T14:30:50.974Z,62.03
2018-07-22T14:45:50.896Z,60.58
2018-07-22T15:00:50.905Z,59.10
2018-07-22T15:15:51.145Z,56.86
2018-07-22T15:30:51.421Z,54.12
2018-07-22T15:45:51.329Z,54.68
2018-07-22T16:00:51.333Z,53.19
2018-07-22T16:15:51.300Z,52.48
2018-07-22T16:30:50.768Z,53.47
2018-07-22T16:45:50.908Z,58.04
2018-07-22T17:00:50.710Z,57.96
2018-07-22T17:15:50.747Z,59.92
2018-07-22T17:30:51.233Z,58.09
2018-07-22T17:45:51.204Z,57.72
2018-07-22T18:00:53.141Z,56.25
2018-07-22T18:15:51.245Z,56.08
2018-07-22T18:30:50.712Z,56.71
2018-07-22T18:45:50.381Z,58.19
2018-07-22T19:00:50.554Z,57.92
2018-07-22T19:15:50.586Z,56.18
2018-07-22T19:30:49.831Z,60.24
2018-07-22T19:45:50.855Z,62.30
2018-07-22T20:00:51.068Z,58.24
2018-07-22T20:15:51.050Z,57.13
2018-07-22T20:30:52.312Z,55.87
2018-07-22T20:45:50.671Z,54.01
2018-07-22T21:00:50.446Z,55.04
2018-07-22T21:15:50.612Z,57.31
2018-07-22T21:30:50.704Z,60.03
2018-07-22T21:45:50.614Z,59.38
2018-07-22T22:00:50.680Z,59.72
2018-07-22T22:15:52.683Z,59.80
2018-07-22T22:30:50.616Z,60.73
2018-07-22T22:45:50.032Z,62.24
2018-07-22T23:00:51.058Z,62.20
2018-07-22T23:15:51.043Z,63.08
2018-07-22T23:30:50.463Z,63.10
2018-07-22T23:45:50.498Z,62.51
